Time;durP1;ratioP1;P1;durP2;ratioP2;P2;SDS_P1;SDS_P2;PMS_P1;PMS_P2;Temp;Humidity;BMP_temperature;BMP_pressure;BME280_temperature;BME280_humidity;BME280_pressure;Samples;Min_cycle;Max_cycle;Signal;HPM_P1;HPM_P2
2022/07/01 00:02:09;;;;;;;;;20.50;19.00;;;28.65;97522.02;;;;118977;1189;25228;-66
2022/07/01 00:04:43;;;;;;;;;23.33;20.00;;;28.64;97521.71;;;;119144;1187;25056;-65
2022/07/01 00:07:11;;;;;;;;;16.50;15.50;;;28.58;97523.23;;;;119136;1187;25486;-65
2022/07/01 00:09:40;;;;;;;;;23.00;21.67;;;28.53;97521.33;;;;119148;1188;25541;-65
2022/07/01 00:12:08;;;;;;;;;22.00;21.00;;;28.50;97520.77;;;;119177;1188;25085;-66
2022/07/01 00:14:36;;;;;;;;;21.50;19.00;;;28.50;97515.83;;;;119279;1187;26023;-66
2022/07/01 00:17:05;;;;;;;;;21.00;20.25;;;28.49;97512.27;;;;119212;1188;24856;-66
2022/07/01 00:19:33;;;;;;;;;18.00;15.25;;;28.49;97513.56;;;;119202;1187;25767;-65
2022/07/01 00:22:01;;;;;;;;;21.00;19.75;;;28.44;97511.52;;;;119104;1188;24824;-65
2022/07/01 00:24:29;;;;;;;;;19.00;18.50;;;28.47;97511.77;;;;119185;1187;24988;-66
2022/07/01 00:26:57;;;;;;;;;20.50;19.25;;;28.43;97512.82;;;;119252;1187;25673;-65
2022/07/01 00:29:26;;;;;;;;;18.25;18.25;;;28.42;97516.03;;;;119241;1188;24847;-65
2022/07/01 00:31:54;;;;;;;;;20.75;20.75;;;28.36;97521.07;;;;119249;1188;24952;-65
2022/07/01 00:34:22;;;;;;;;;17.00;17.00;;;28.32;97525.80;;;;119243;1187;25817;-65
2022/07/01 00:36:50;;;;;;;;;21.50;18.75;;;28.31;97526.39;;;;119252;1188;25139;-64
2022/07/01 00:39:18;;;;;;;;;23.00;19.00;;;28.30;97525.69;;;;119258;1187;25477;-64
2022/07/01 00:41:46;;;;;;;;;19.25;18.50;;;28.31;97521.94;;;;119251;1187;24790;-65
2022/07/01 00:44:18;;;;;;;;;20.00;18.00;;;28.28;97519.89;;;;119256;1187;25023;-65
2022/07/01 00:46:49;;;;;;;;;23.25;18.75;;;28.28;97518.22;;;;119115;1188;25044;-66
2022/07/01 00:49:18;;;;;;;;;23.75;18.25;;;28.25;97518.54;;;;118994;1190;25437;-66
2022/07/01 00:51:46;;;;;;;;;22.33;19.33;;;28.23;97518.20;;;;119243;1188;25722;-64
2022/07/01 00:54:14;;;;;;;;;20.75;18.25;;;28.21;97518.51;;;;119228;1187;25373;-67
2022/07/01 00:56:42;;;;;;;;;21.25;18.00;;;28.19;97516.02;;;;119153;1188;24803;-66
2022/07/01 00:59:11;;;;;;;;;23.00;20.50;;;28.13;97517.64;;;;119108;1187;24859;-66
2022/07/01 01:01:39;;;;;;;;;18.00;16.50;;;28.11;97516.39;;;;119140;1188;25927;-66
2022/07/01 01:04:07;;;;;;;;;21.25;20.75;;;28.10;97518.59;;;;119120;1188;24900;-66
2022/07/01 01:06:35;;;;;;;;;20.75;17.75;;;28.11;97517.70;;;;118989;1189;25663;-66
2022/07/01 01:09:03;;;;;;;;;19.75;17.25;;;28.07;97514.12;;;;119268;1187;25085;-65
2022/07/01 01:11:31;;;;;;;;;20.75;18.00;;;28.07;97515.80;;;;119251;1187;26183;-66
2022/07/01 01:13:59;;;;;;;;;16.00;15.25;;;28.05;97517.79;;;;119269;1187;25407;-66
2022/07/01 01:16:27;;;;;;;;;21.50;21.00;;;27.99;97514.65;;;;119252;1187;24897;-66
2022/07/01 01:18:56;;;;;;;;;16.00;14.25;;;27.96;97515.82;;;;119262;1187;25570;-66
2022/07/01 01:21:24;;;;;;;;;15.00;15.00;;;27.94;97519.40;;;;119252;1187;24856;-75
2022/07/01 01:23:52;;;;;;;;;23.75;20.25;;;28.05;97523.21;;;;119232;1187;25705;-75
2022/07/01 01:26:23;;;;;;;;;20.25;20.25;;;28.22;97529.33;;;;119145;1187;24761;-75
2022/07/01 01:28:52;;;;;;;;;17.00;14.00;;;28.39;97526.85;;;;119094;1187;25434;-74
2022/07/01 01:31:33;;;;;;;;;20.50;17.25;;;28.52;97528.44;;;;119107;1187;25733;-75
2022/07/01 01:34:01;;;;;;;;;18.00;15.00;;;28.68;97530.55;;;;119108;1187;25726;-74
2022/07/01 01:36:30;;;;;;;;;17.50;17.25;;;28.77;97531.17;;;;119117;1188;25565;-74
2022/07/01 01:41:54;;;;;;;;;17.67;13.00;;;29.06;97533.67;;;;119016;1188;25122;-74
2022/07/01 01:44:22;;;;;;;;;17.25;16.25;;;29.11;97534.15;;;;118977;1189;25787;-74
2022/07/01 01:46:50;;;;;;;;;20.25;17.25;;;29.14;97539.94;;;;118961;1189;25422;-74
2022/07/01 01:49:18;;;;;;;;;19.00;18.00;;;29.19;97543.44;;;;119091;1188;24847;-74
2022/07/01 01:51:46;;;;;;;;;20.50;18.75;;;29.23;97547.70;;;;119070;1189;25653;-74
2022/07/01 01:54:14;;;;;;;;;19.00;17.00;;;29.26;97549.39;;;;119092;1187;24957;-74
2022/07/01 01:56:42;;;;;;;;;16.75;15.25;;;29.30;97551.14;;;;119086;1187;24951;-73
2022/07/01 01:59:12;;;;;;;;;18.75;17.75;;;29.35;97549.95;;;;119079;1187;25651;-74
2022/07/01 02:01:40;;;;;;;;;18.00;15.00;;;29.38;97547.78;;;;119119;1187;25506;-74
2022/07/01 02:04:08;;;;;;;;;16.25;15.75;;;29.41;97551.23;;;;119192;1187;24722;-74
2022/07/01 02:06:36;;;;;;;;;18.67;17.67;;;29.45;97551.58;;;;119221;1188;25076;-74
2022/07/01 02:09:04;;;;;;;;;18.00;16.75;;;29.48;97548.97;;;;119227;1188;25814;-74
2022/07/01 02:11:32;;;;;;;;;18.25;17.25;;;29.49;97546.95;;;;119192;1187;25641;-74
2022/07/01 02:14:00;;;;;;;;;19.00;17.75;;;29.48;97546.21;;;;119208;1187;25126;-74
2022/07/01 02:16:28;;;;;;;;;24.00;18.33;;;29.51;97545.77;;;;119170;1187;25576;-74
2022/07/01 02:18:56;;;;;;;;;18.00;16.50;;;29.55;97550.83;;;;119175;1187;24986;-74
2022/07/01 02:21:23;;;;;;;;;18.75;18.50;;;29.57;97552.96;;;;119219;1187;25691;-74
2022/07/01 02:23:54;;;;;;;;;15.75;14.00;;;29.59;97550.78;;;;119216;1188;25319;-75
2022/07/01 02:26:22;;;;;;;;;20.25;18.25;;;29.61;97548.50;;;;119225;1187;25310;-75
2022/07/01 02:28:50;;;;;;;;;16.25;15.75;;;29.62;97548.86;;;;119224;1188;24802;-75
2022/07/01 02:31:18;;;;;;;;;19.50;17.75;;;29.61;97551.70;;;;119245;1187;24942;-75
2022/07/01 02:33:46;;;;;;;;;18.25;13.75;;;29.63;97554.05;;;;119239;1186;24848;-75
2022/07/01 02:36:14;;;;;;;;;15.75;15.75;;;29.63;97561.17;;;;119279;1186;26304;-74
2022/07/01 02:38:42;;;;;;;;;14.00;12.75;;;29.64;97567.46;;;;119246;1187;25756;-74
2022/07/01 02:41:09;;;;;;;;;23.75;21.25;;;29.64;97571.88;;;;119208;1187;26739;-74
2022/07/01 02:43:38;;;;;;;;;18.50;17.25;;;29.65;97572.68;;;;118981;1189;25710;-74
2022/07/01 02:46:06;;;;;;;;;16.50;15.75;;;29.66;97570.67;;;;118965;1189;25384;-73
2022/07/01 02:48:34;;;;;;;;;23.00;19.00;;;29.66;97567.63;;;;119193;1187;25748;-75
2022/07/01 02:51:02;;;;;;;;;13.25;11.50;;;29.68;97566.42;;;;119232;1188;25483;-77
2022/07/01 02:53:30;;;;;;;;;16.25;15.75;;;29.71;97573.50;;;;119260;1186;25143;-74
2022/07/01 02:55:58;;;;;;;;;22.00;20.00;;;29.71;97576.42;;;;119252;1188;25843;-74
2022/07/01 02:58:26;;;;;;;;;17.50;16.00;;;29.71;97579.41;;;;119246;1186;24751;-75
2022/07/01 03:00:54;;;;;;;;;22.75;18.75;;;29.73;97580.00;;;;119250;1186;24773;-75
2022/07/01 03:03:22;;;;;;;;;22.00;18.00;;;29.78;97581.08;;;;119202;1188;25335;-75
2022/07/01 03:05:50;;;;;;;;;15.00;14.25;;;29.78;97583.92;;;;119136;1188;24828;-75
2022/07/01 03:08:18;;;;;;;;;16.25;16.25;;;29.77;97584.86;;;;119018;1189;25113;-74
2022/07/01 03:10:46;;;;;;;;;16.00;13.00;;;29.76;97588.02;;;;119157;1187;25173;-74
2022/07/01 03:13:13;;;;;;;;;23.25;17.75;;;29.77;97589.02;;;;119219;1187;25315;-75
2022/07/01 03:15:41;;;;;;;;;19.50;19.50;;;29.77;97594.27;;;;119175;1187;25068;-76
2022/07/01 03:18:09;;;;;;;;;21.00;15.25;;;29.81;97598.71;;;;119244;1186;24808;-75
2022/07/01 03:20:37;;;;;;;;;21.33;18.33;;;29.82;97600.86;;;;119238;1187;25541;-63
2022/07/01 03:23:05;;;;;;;;;18.50;17.75;;;29.78;97603.78;;;;119111;1187;25053;-64
2022/07/01 03:25:35;;;;;;;;;17.50;17.25;;;29.64;97605.83;;;;119108;1187;25655;-64
2022/07/01 03:28:03;;;;;;;;;16.00;15.50;;;29.65;97609.13;;;;119115;1188;25016;-64
2022/07/01 03:30:32;;;;;;;;;13.75;11.00;;;29.67;97607.59;;;;119125;1187;25705;-63
2022/07/01 03:33:00;;;;;;;;;17.25;16.00;;;29.66;97608.87;;;;118997;1188;25282;-64
2022/07/01 03:35:39;;;;;;;;;16.25;13.75;;;29.65;97599.52;;;;119159;1187;24963;-64
2022/07/01 03:38:07;;;;;;;;;25.75;19.50;;;29.71;97599.20;;;;119137;1187;25022;-65
2022/07/01 03:40:35;;;;;;;;;15.75;14.50;;;29.73;97597.70;;;;119122;1188;24988;-62
2022/07/01 03:43:04;;;;;;;;;21.00;20.00;;;29.74;97598.51;;;;119121;1188;25801;-64
2022/07/01 03:45:32;;;;;;;;;22.50;19.25;;;29.74;97596.79;;;;119153;1187;24696;-63
2022/07/01 03:48:02;;;;;;;;;23.75;22.25;;;29.52;97596.31;;;;118977;1189;25369;-63
2022/07/01 03:50:30;;;;;;;;;24.00;23.33;;;29.51;97594.98;;;;119161;1186;25964;-63
2022/07/01 03:55:45;;;;;;;;;28.25;22.25;;;29.42;97599.94;;;;119096;1188;24891;-63
2022/07/01 03:58:13;;;;;;;;;24.75;24.25;;;29.38;97597.74;;;;119113;1188;25494;-64
2022/07/01 04:00:41;;;;;;;;;18.75;17.25;;;29.32;97597.85;;;;119182;1187;25341;-66
2022/07/01 04:03:09;;;;;;;;;24.75;19.75;;;29.20;97598.23;;;;119245;1187;25368;-66
2022/07/01 04:05:37;;;;;;;;;18.75;18.00;;;29.16;97599.80;;;;119247;1187;24890;-66
2022/07/01 04:08:07;;;;;;;;;23.75;21.75;;;29.15;97599.06;;;;119266;1187;25602;-71
2022/07/01 04:10:35;;;;;;;;;21.00;17.75;;;29.10;97599.02;;;;119143;1187;24807;-69
2022/07/01 04:13:04;;;;;;;;;24.75;21.25;;;29.13;97600.15;;;;118967;1188;25766;-68
2022/07/01 04:15:52;;;;;;;;;31.00;26.33;;;29.21;97605.27;;;;119140;1186;24799;-64
2022/07/01 04:18:20;;;;;;;;;23.00;22.75;;;29.32;97607.27;;;;119018;1188;25295;-66
2022/07/01 04:22:32;;;;;;;;;35.00;30.00;;;29.35;97606.48;;;;119248;1187;25758;-66
2022/07/01 04:23:35;;;;;;;;;49.00;37.00;;;29.47;97607.33;;;;119244;1188;25541;-67
2022/07/01 04:26:03;;;;;;;;;56.33;41.00;;;29.53;97606.58;;;;119114;1187;24750;-67
2022/07/01 04:28:52;;;;;;;;;67.00;47.00;;;29.64;97602.95;;;;119105;1187;25894;-66
2022/07/01 04:31:21;;;;;;;;;60.67;45.33;;;29.68;97603.30;;;;119130;1187;24842;-65
2022/07/01 04:33:50;;;;;;;;;68.33;49.00;;;29.68;97601.42;;;;119119;1188;25587;-66
2022/07/01 04:36:18;;;;;;;;;57.67;46.00;;;29.71;97602.27;;;;119127;1188;25250;-63
2022/07/01 04:38:46;;;;;;;;;66.67;48.00;;;29.75;97606.14;;;;119130;1187;24828;-74
2022/07/01 04:44:00;;;;;;;;;57.67;45.33;;;29.86;97606.36;;;;119119;1187;24911;-67
2022/07/01 04:46:29;;;;;;;;;65.00;43.67;;;29.89;97607.44;;;;118920;1187;25564;-64
2022/07/01 04:48:57;;;;;;;;;62.33;42.00;;;29.93;97608.71;;;;119144;1187;25476;-66
2022/07/01 04:51:24;;;;;;;;;52.75;37.25;;;29.97;97609.28;;;;119093;1188;25614;-66
2022/07/01 04:53:53;;;;;;;;;55.75;38.50;;;29.97;97606.94;;;;118903;1189;24758;-68
2022/07/01 04:56:21;;;;;;;;;54.00;39.67;;;30.02;97604.86;;;;119209;1188;25212;-66
2022/07/01 04:58:49;;;;;;;;;60.67;44.67;;;30.07;97606.18;;;;119018;1189;25340;-66
2022/07/01 05:01:17;;;;;;;;;59.00;43.00;;;30.04;97607.79;;;;119021;1188;25514;-67
2022/07/01 05:03:45;;;;;;;;;53.33;43.33;;;30.02;97612.80;;;;119255;1186;25151;-67
2022/07/01 05:06:13;;;;;;;;;54.00;40.00;;;30.01;97617.55;;;;119234;1187;25033;-67
2022/07/01 05:08:41;;;;;;;;;68.00;46.00;;;30.02;97617.19;;;;119244;1187;24791;-67
2022/07/01 05:11:09;;;;;;;;;57.00;42.67;;;30.02;97617.64;;;;119255;1187;25401;-67
2022/07/01 05:13:37;;;;;;;;;59.33;41.33;;;30.03;97618.15;;;;119230;1187;25685;-67
2022/07/01 05:16:08;;;;;;;;;58.67;41.67;;;30.04;97619.27;;;;119251;1188;25407;-67
2022/07/01 05:24:10;;;;;;;;;59.33;43.67;;;30.06;97624.95;;;;119053;1189;25711;-67
2022/07/01 05:26:38;;;;;;;;;65.67;45.67;;;30.04;97624.38;;;;119059;1189;25035;-67
2022/07/01 05:29:06;;;;;;;;;61.67;44.67;;;30.04;97626.23;;;;119251;1187;25103;-67
2022/07/01 05:31:34;;;;;;;;;64.67;46.67;;;30.04;97625.25;;;;119244;1188;24927;-67
2022/07/01 05:34:02;;;;;;;;;64.33;45.67;;;30.04;97625.19;;;;119248;1187;25061;-67
2022/07/01 05:36:32;;;;;;;;;64.67;45.00;;;30.04;97626.30;;;;119235;1188;25471;-67
2022/07/01 05:39:00;;;;;;;;;60.00;45.33;;;30.05;97626.25;;;;119248;1187;25511;-67
2022/07/01 05:41:28;;;;;;;;;61.00;43.67;;;30.06;97623.38;;;;118978;1189;25407;-67
2022/07/01 05:43:56;;;;;;;;;57.00;41.67;;;30.09;97622.95;;;;118984;1190;26403;-67
2022/07/01 05:46:24;;;;;;;;;61.67;44.33;;;30.10;97622.06;;;;118971;1189;24981;-67
2022/07/01 05:48:52;;;;;;;;;58.67;43.33;;;30.10;97623.19;;;;118988;1189;24934;-67
2022/07/01 05:51:20;;;;;;;;;60.33;46.33;;;30.11;97624.89;;;;118966;1189;25183;-67
2022/07/01 05:53:48;;;;;;;;;61.33;46.33;;;30.11;97626.83;;;;119000;1189;25334;-67
2022/07/01 05:56:16;;;;;;;;;60.33;45.67;;;30.12;97625.11;;;;118952;1190;25097;-67
2022/07/01 05:58:44;;;;;;;;;59.33;44.33;;;30.12;97623.05;;;;118980;1189;25353;-67
2022/07/01 06:01:13;;;;;;;;;56.33;41.00;;;30.13;97621.98;;;;118976;1189;26273;-67
2022/07/01 06:03:41;;;;;;;;;60.50;44.00;;;30.14;97620.43;;;;118974;1190;26058;-67
2022/07/01 06:06:09;;;;;;;;;60.67;42.67;;;30.14;97621.70;;;;118964;1190;25418;-67
2022/07/01 06:08:37;;;;;;;;;59.33;40.67;;;30.15;97621.23;;;;118977;1189;25834;-67
2022/07/01 06:11:04;;;;;;;;;58.67;43.33;;;30.15;97624.64;;;;118972;1190;25234;-67
2022/07/01 06:13:32;;;;;;;;;63.67;44.33;;;30.15;97624.95;;;;118981;1189;25693;-67
2022/07/01 06:16:01;;;;;;;;;51.00;39.67;;;30.15;97627.06;;;;118982;1190;25018;-67
2022/07/01 06:18:29;;;;;;;;;51.33;40.00;;;30.16;97625.94;;;;118918;1189;25634;-67
2022/07/01 06:20:57;;;;;;;;;55.33;41.00;;;30.17;97626.00;;;;118961;1190;25652;-67
2022/07/01 06:23:25;;;;;;;;;59.67;44.00;;;30.17;97621.33;;;;118953;1190;25670;-67
2022/07/01 06:25:52;;;;;;;;;57.33;45.00;;;30.17;97622.08;;;;118911;1188;25107;-67
2022/07/01 06:28:20;;;;;;;;;55.67;39.67;;;30.18;97620.09;;;;118959;1189;25531;-67
2022/07/01 06:30:49;;;;;;;;;53.00;40.67;;;30.19;97621.51;;;;118980;1188;25754;-67
2022/07/01 06:33:17;;;;;;;;;58.67;45.00;;;30.19;97622.67;;;;118956;1189;24769;-68
2022/07/01 06:35:44;;;;;;;;;56.00;41.67;;;30.19;97625.41;;;;118998;1189;25542;-68
2022/07/01 06:38:12;;;;;;;;;53.00;41.00;;;30.19;97626.56;;;;118954;1189;25271;-67
2022/07/01 06:40:40;;;;;;;;;42.67;38.00;;;30.19;97626.42;;;;118983;1189;25047;-67
2022/07/01 06:43:08;;;;;;;;;52.67;41.00;;;30.19;97627.40;;;;119096;1186;24956;-68
2022/07/01 06:45:36;;;;;;;;;60.00;45.00;;;30.20;97628.09;;;;119274;1188;25556;-68
2022/07/01 06:48:05;;;;;;;;;56.75;42.25;;;30.20;97625.61;;;;119253;1186;24801;-67
2022/07/01 06:50:33;;;;;;;;;51.67;38.33;;;30.20;97624.35;;;;119259;1187;25087;-69
2022/07/01 06:53:00;;;;;;;;;53.67;40.33;;;30.21;97621.02;;;;119041;1188;25393;-67
2022/07/01 06:55:28;;;;;;;;;52.00;38.00;;;30.21;97618.91;;;;119244;1187;25532;-67
2022/07/01 06:57:57;;;;;;;;;53.00;39.00;;;30.22;97625.70;;;;119225;1188;25194;-68
2022/07/01 07:00:25;;;;;;;;;49.50;37.00;;;30.21;97625.61;;;;118985;1189;25729;-68
2022/07/01 07:02:53;;;;;;;;;50.75;38.00;;;30.22;97626.37;;;;119243;1187;25650;-68
2022/07/01 07:05:21;;;;;;;;;50.25;40.75;;;30.22;97626.33;;;;119268;1187;25174;-68
2022/07/01 07:07:49;;;;;;;;;51.00;39.00;;;30.22;97622.98;;;;119232;1188;24958;-67
2022/07/01 07:10:16;;;;;;;;;47.75;39.25;;;30.22;97620.98;;;;119258;1187;25145;-67
2022/07/01 07:12:44;;;;;;;;;51.00;39.33;;;30.22;97617.95;;;;119266;1187;25540;-67
2022/07/01 07:15:12;;;;;;;;;49.00;37.00;;;30.22;97617.19;;;;119266;1186;24960;-67
2022/07/01 07:17:40;;;;;;;;;48.50;36.50;;;30.22;97616.77;;;;119015;1188;25064;-67
2022/07/01 07:20:09;;;;;;;;;46.00;37.00;;;30.22;97616.17;;;;119228;1187;25538;-67
2022/07/01 07:22:37;;;;;;;;;50.33;38.00;;;30.23;97613.17;;;;119151;1188;25406;-67
2022/07/01 07:25:06;;;;;;;;;46.00;36.50;;;30.25;97612.02;;;;119125;1189;25622;-67
2022/07/01 07:27:33;;;;;;;;;41.67;37.67;;;30.25;97610.16;;;;119155;1186;25566;-67
2022/07/01 07:30:03;;;;;;;;;48.00;39.00;;;30.25;97608.67;;;;119144;1188;25367;-68
2022/07/01 07:32:31;;;;;;;;;50.75;36.75;;;30.25;97608.64;;;;119012;1188;25173;-67
2022/07/01 07:34:59;;;;;;;;;46.00;37.33;;;30.26;97605.52;;;;119244;1187;26257;-67
2022/07/01 07:37:27;;;;;;;;;49.25;36.00;;;30.26;97604.21;;;;119261;1187;25527;-68
2022/07/01 07:39:55;;;;;;;;;45.00;35.33;;;30.25;97605.15;;;;119281;1187;25243;-68
2022/07/01 07:42:22;;;;;;;;;42.25;36.75;;;30.26;97603.66;;;;119254;1187;25289;-68
2022/07/01 07:44:50;;;;;;;;;48.00;37.25;;;30.26;97604.14;;;;119249;1187;26364;-67
2022/07/01 07:47:18;;;;;;;;;48.50;39.00;;;30.25;97601.41;;;;119255;1187;24942;-67
2022/07/01 07:49:46;;;;;;;;;49.00;38.25;;;30.28;97600.66;;;;119175;1187;26131;-68
2022/07/01 07:52:14;;;;;;;;;46.00;36.00;;;30.31;97599.18;;;;119099;1187;24899;-67
2022/07/01 07:54:42;;;;;;;;;51.67;37.00;;;30.30;97599.24;;;;119111;1188;25590;-70
2022/07/01 07:57:11;;;;;;;;;45.25;36.00;;;30.28;97598.98;;;;119000;1187;25184;-67
2022/07/01 07:59:39;;;;;;;;;45.00;36.50;;;30.29;97597.50;;;;119218;1186;26259;-66
2022/07/01 08:02:07;;;;;;;;;45.00;36.50;;;30.28;97595.20;;;;119206;1186;25632;-65
2022/07/01 08:04:35;;;;;;;;;48.50;34.50;;;30.29;97596.55;;;;119245;1187;25502;-67
2022/07/01 08:07:04;;;;;;;;;49.25;34.75;;;30.30;97594.15;;;;119286;1187;25461;-68
2022/07/01 08:09:34;;;;;;;;;45.25;35.50;;;30.30;97595.91;;;;119237;1187;25455;-70
2022/07/01 08:12:03;;;;;;;;;50.00;35.50;;;30.30;97593.55;;;;119238;1187;25364;-65
2022/07/01 08:14:31;;;;;;;;;43.00;33.25;;;30.33;97589.41;;;;119219;1187;25595;-66
2022/07/01 08:16:59;;;;;;;;;37.00;34.50;;;30.32;97591.17;;;;119218;1186;25286;-66
2022/07/01 08:19:27;;;;;;;;;39.50;34.25;;;30.32;97592.57;;;;119025;1187;25062;-66
2022/07/01 08:21:55;;;;;;;;;43.00;35.75;;;30.31;97594.70;;;;119257;1187;25256;-66
2022/07/01 08:24:23;;;;;;;;;46.00;32.25;;;30.30;97596.86;;;;119254;1186;25109;-65
2022/07/01 08:26:51;;;;;;;;;40.25;33.00;;;30.29;97595.00;;;;119280;1188;25302;-66
2022/07/01 08:29:19;;;;;;;;;39.25;32.75;;;30.29;97597.58;;;;119259;1187;24774;-66
2022/07/01 08:31:47;;;;;;;;;29.25;29.25;;;30.28;97598.55;;;;119227;1187;25202;-67
2022/07/01 08:34:20;;;;;;;;;43.25;31.75;;;30.30;97601.30;;;;119244;1187;24741;-67
2022/07/01 08:36:48;;;;;;;;;36.50;29.50;;;30.33;97597.98;;;;119241;1188;25437;-66
2022/07/01 08:39:16;;;;;;;;;33.75;29.00;;;30.32;97597.20;;;;119311;1186;25680;-66
2022/07/01 08:41:44;;;;;;;;;35.50;26.50;;;30.42;97592.35;;;;119249;1187;25392;-68
2022/07/01 08:44:12;;;;;;;;;33.75;32.50;;;30.47;97588.62;;;;119310;1187;25381;-66
2022/07/01 08:46:40;;;;;;;;;43.00;34.00;;;30.57;97590.90;;;;119497;1186;25720;-67
2022/07/01 08:49:08;;;;;;;;;35.25;29.75;;;30.84;97592.04;;;;119253;1187;25107;-66
2022/07/01 08:51:36;;;;;;;;;41.00;33.50;;;30.71;97591.06;;;;119261;1188;24986;-66
2022/07/01 08:54:04;;;;;;;;;32.75;26.50;;;30.61;97591.36;;;;119025;1188;25609;-66
2022/07/01 08:56:41;;;;;;;;;34.75;30.75;;;30.57;97592.77;;;;119240;1187;25055;-66
2022/07/01 08:59:12;;;;;;;;;43.00;33.00;;;30.53;97593.66;;;;119240;1187;25794;-66
2022/07/01 09:01:40;;;;;;;;;35.00;29.00;;;30.49;97592.73;;;;119250;1187;25172;-66
2022/07/01 09:04:18;;;;;;;;;33.25;28.25;;;30.46;97589.89;;;;119249;1187;25142;-66
2022/07/01 09:06:47;;;;;;;;;36.75;33.00;;;30.44;97589.77;;;;119262;1187;25417;-67
2022/07/01 09:09:18;;;;;;;;;39.50;30.50;;;30.42;97591.02;;;;119253;1187;24747;-66
2022/07/01 09:11:53;;;;;;;;;38.25;31.50;;;30.41;97593.23;;;;119227;1187;24750;-67
2022/07/01 09:14:33;;;;;;;;;33.00;30.50;;;30.42;97591.05;;;;119275;1187;25454;-66
2022/07/01 09:17:03;;;;;;;;;29.50;28.50;;;30.47;97585.60;;;;119222;1187;26579;-67
2022/07/01 09:19:34;;;;;;;;;32.75;26.75;;;30.46;97584.21;;;;119262;1188;25548;-67
2022/07/01 09:22:04;;;;;;;;;31.00;28.50;;;30.44;97587.10;;;;119281;1187;25086;-66
2022/07/01 09:24:34;;;;;;;;;42.00;32.25;;;30.42;97583.56;;;;119050;1187;25340;-67
2022/07/01 09:27:12;;;;;;;;;33.33;29.33;;;30.41;97580.83;;;;119249;1187;24838;-66
2022/07/01 09:29:51;;;;;;;;;29.75;27.25;;;30.44;97578.52;;;;119256;1188;24947;-67
2022/07/01 09:32:20;;;;;;;;;34.25;30.75;;;30.43;97579.70;;;;119028;1188;24950;-66
2022/07/01 09:34:53;;;;;;;;;34.67;26.67;;;30.41;97578.71;;;;119247;1187;25065;-66
2022/07/01 09:37:25;;;;;;;;;35.00;32.25;;;30.42;97577.63;;;;119247;1186;26456;-66
2022/07/01 09:39:57;;;;;;;;;36.50;26.50;;;30.42;97581.60;;;;119252;1186;25695;-66
2022/07/01 09:42:27;;;;;;;;;35.00;28.75;;;30.42;97580.27;;;;119153;1188;25384;-66
2022/07/01 09:44:58;;;;;;;;;24.50;21.75;;;30.42;97577.61;;;;119260;1186;25016;-67
2022/07/01 09:47:34;;;;;;;;;33.75;28.25;;;30.43;97578.27;;;;119257;1187;25277;-66
2022/07/01 09:50:04;;;;;;;;;28.00;25.25;;;30.43;97576.77;;;;119252;1187;24727;-66
2022/07/01 09:52:33;;;;;;;;;36.25;31.25;;;30.42;97573.29;;;;119240;1187;25503;-66
2022/07/01 09:55:08;;;;;;;;;33.50;28.50;;;30.42;97569.50;;;;119244;1188;25655;-66
2022/07/01 09:57:35;;;;;;;;;31.00;27.00;;;30.42;97564.16;;;;119258;1188;25428;-66
2022/07/01 10:00:05;;;;;;;;;27.75;26.75;;;30.41;97560.83;;;;119219;1188;25661;-66
2022/07/01 10:02:34;;;;;;;;;32.50;30.00;;;30.41;97557.29;;;;119264;1188;25462;-66
2022/07/01 10:05:07;;;;;;;;;30.50;27.25;;;30.40;97554.86;;;;119262;1186;25411;-66
2022/07/01 10:07:58;;;;;;;;;30.75;25.75;;;30.41;97554.16;;;;119060;1188;25111;-67
2022/07/01 10:10:35;;;;;;;;;29.50;26.00;;;30.50;97550.56;;;;119082;1188;24783;-65
2022/07/01 10:13:06;;;;;;;;;36.50;32.75;;;30.48;97552.30;;;;119239;1188;25081;-65
2022/07/01 10:15:34;;;;;;;;;32.50;24.00;;;30.45;97550.23;;;;119258;1187;25408;-67
2022/07/01 10:18:03;;;;;;;;;29.00;25.75;;;30.45;97546.89;;;;118987;1189;24738;-66
2022/07/01 10:20:31;;;;;;;;;25.00;21.25;;;30.44;97543.66;;;;119251;1188;25337;-66
2022/07/01 10:23:02;;;;;;;;;30.00;28.33;;;30.42;97540.14;;;;119200;1186;25051;-66
2022/07/01 10:25:40;;;;;;;;;23.75;22.75;;;30.42;97536.92;;;;119190;1188;25688;-66
2022/07/01 10:28:12;;;;;;;;;30.75;24.50;;;30.44;97535.98;;;;119187;1187;25760;-65
2022/07/01 10:30:50;;;;;;;;;28.25;26.25;;;30.44;97539.56;;;;119197;1187;25075;-65
2022/07/01 10:33:31;;;;;;;;;34.50;25.25;;;30.44;97536.11;;;;119201;1188;24895;-65
2022/07/01 10:36:11;;;;;;;;;31.75;23.25;;;30.45;97533.31;;;;119196;1187;25659;-66
2022/07/01 10:39:07;;;;;;;;;41.00;30.00;;;30.44;97530.25;;;;119183;1188;25704;-66
2022/07/01 10:41:42;;;;;;;;;26.50;23.75;;;30.45;97530.73;;;;119154;1188;25014;-66
2022/07/01 10:44:13;;;;;;;;;31.75;26.50;;;30.43;97524.02;;;;119121;1187;24827;-66
2022/07/01 10:47:06;;;;;;;;;25.00;24.00;;;30.51;97519.70;;;;119152;1188;25367;-66
2022/07/01 10:49:57;;;;;;;;;27.25;25.00;;;30.53;97514.46;;;;119201;1188;25641;-65
2022/07/01 10:52:26;;;;;;;;;31.25;24.00;;;30.58;97511.69;;;;119167;1189;25150;-65
2022/07/01 10:54:57;;;;;;;;;34.00;26.33;;;30.57;97502.87;;;;119180;1187;25173;-65
2022/07/01 10:57:40;;;;;;;;;25.00;22.50;;;30.55;97503.11;;;;119186;1187;25435;-66
2022/07/01 11:00:08;;;;;;;;;31.00;24.67;;;30.58;97500.39;;;;119176;1188;25547;-66
2022/07/01 11:02:39;;;;;;;;;32.50;25.50;;;30.56;97494.90;;;;119162;1187;26004;-67
2022/07/01 11:05:11;;;;;;;;;30.25;26.00;;;30.54;97493.55;;;;119199;1188;26140;-66
2022/07/01 11:07:42;;;;;;;;;32.25;27.50;;;30.54;97487.54;;;;119011;1188;24776;-66
2022/07/01 11:10:11;;;;;;;;;27.00;24.25;;;30.55;97482.19;;;;119252;1187;25294;-66
2022/07/01 11:12:40;;;;;;;;;27.00;23.50;;;30.54;97478.88;;;;119271;1186;25220;-66
2022/07/01 11:15:10;;;;;;;;;31.67;27.33;;;30.54;97478.62;;;;119242;1186;25704;-66
2022/07/01 11:17:44;;;;;;;;;29.00;25.33;;;30.55;97476.80;;;;119114;1188;25047;-66
2022/07/01 11:20:12;;;;;;;;;27.00;23.75;;;30.56;97476.03;;;;119263;1187;25019;-66
2022/07/01 11:22:40;;;;;;;;;28.00;21.50;;;30.55;97471.63;;;;119236;1188;25417;-66
2022/07/01 11:25:13;;;;;;;;;29.75;25.25;;;30.54;97468.38;;;;119259;1187;26269;-66
2022/07/01 11:27:46;;;;;;;;;29.25;25.25;;;30.55;97463.90;;;;119265;1187;25044;-66
2022/07/01 11:30:15;;;;;;;;;27.75;26.50;;;30.57;97461.16;;;;119247;1187;25550;-67
2022/07/01 11:32:53;;;;;;;;;26.75;23.75;;;30.61;97452.73;;;;119000;1189;25039;-66
2022/07/01 11:41:06;;;;;;;;;29.25;25.75;;;30.63;97446.48;;;;119253;1187;25335;-66
2022/07/01 11:43:37;;;;;;;;;27.50;24.25;;;30.61;97443.90;;;;119067;1188;25393;-66
2022/07/01 11:46:07;;;;;;;;;25.75;23.50;;;30.62;97444.59;;;;119281;1186;25044;-66
2022/07/01 11:48:41;;;;;;;;;24.00;22.75;;;30.61;97441.89;;;;119132;1188;25469;-66
2022/07/01 11:51:11;;;;;;;;;19.00;13.75;;;30.62;97441.25;;;;119110;1187;25802;-66
2022/07/01 11:53:45;;;;;;;;;24.50;21.50;;;30.65;97441.19;;;;119104;1189;25505;-65
2022/07/01 11:56:13;;;;;;;;;23.75;21.25;;;30.66;97440.46;;;;119112;1188;25527;-65
2022/07/01 11:58:46;;;;;;;;;21.33;21.33;;;30.66;97440.98;;;;119115;1188;25592;-67
2022/07/01 12:01:40;;;;;;;;;19.50;18.00;;;30.66;97444.35;;;;118950;1190;26200;-65
2022/07/01 12:04:09;;;;;;;;;23.75;21.75;;;30.75;97446.66;;;;119050;1188;25441;-66
2022/07/01 12:06:39;;;;;;;;;23.00;21.00;;;30.75;97451.41;;;;119116;1188;25158;-66
2022/07/01 12:09:12;;;;;;;;;23.50;20.75;;;30.73;97450.84;;;;119102;1188;25396;-66
2022/07/01 12:11:44;;;;;;;;;29.25;17.25;;;30.73;97450.19;;;;119095;1187;24841;-66
2022/07/01 12:14:22;;;;;;;;;30.50;25.00;;;30.74;97445.83;;;;119007;1190;25141;-67
2022/07/01 12:16:55;;;;;;;;;27.00;23.67;;;30.77;97441.61;;;;119137;1188;25120;-66
2022/07/01 12:19:35;;;;;;;;;24.75;22.75;;;30.78;97442.17;;;;119101;1187;25728;-66
2022/07/01 12:22:10;;;;;;;;;24.75;21.75;;;30.77;97441.55;;;;118989;1189;25367;-66
2022/07/01 12:24:38;;;;;;;;;26.50;25.25;;;30.76;97441.78;;;;119131;1188;25104;-67